sensor_id;sensor_type;location;lat;lon;timestamp;pressure;altitude;pressure_sealevel;temperature;humidity
20860;BME280;10590;48.154;11.514;2023-05-21T00:00:10;95327.13;;;15.20;63.84
20860;BME280;10590;48.154;11.514;2023-05-21T00:05:32;95315.66;;;15.23;64.25
20860;BME280;10590;48.154;11.514;2023-05-21T00:10:54;95312.34;;;15.29;63.64
20860;BME280;10590;48.154;11.514;2023-05-21T00:16:17;95313.81;;;15.08;63.02
20860;BME280;10590;48.154;11.514;2023-05-21T00:21:39;95298.00;;;15.22;62.55
20860;BME280;10590;48.154;11.514;2023-05-21T00:27:01;95303.56;;;15.13;62.20
20860;BME280;10590;48.154;11.514;2023-05-21T00:32:24;95296.75;;;15.00;62.46
20860;BME280;10590;48.154;11.514;2023-05-21T00:37:46;95288.69;;;15.00;62.38
20860;BME280;10590;48.154;11.514;2023-05-21T00:43:08;95290.13;;;14.78;62.65
20860;BME280;10590;48.154;11.514;2023-05-21T00:48:32;95287.78;;;15.12;61.53
20860;BME280;10590;48.154;11.514;2023-05-21T00:53:54;95296.44;;;14.86;61.76
20860;BME280;10590;48.154;11.514;2023-05-21T00:59:16;95277.66;;;14.70;61.71
20860;BME280;10590;48.154;11.514;2023-05-21T01:04:40;95273.31;;;14.81;61.11
20860;BME280;10590;48.154;11.514;2023-05-21T01:10:02;95289.94;;;14.87;61.54
20860;BME280;10590;48.154;11.514;2023-05-21T01:15:25;95289.28;;;14.74;60.45
20860;BME280;10590;48.154;11.514;2023-05-21T01:20:50;95285.06;;;14.92;61.41
20860;BME280;10590;48.154;11.514;2023-05-21T01:26:14;95282.50;;;14.80;60.54
20860;BME280;10590;48.154;11.514;2023-05-21T01:31:41;95284.16;;;14.69;60.91
20860;BME280;10590;48.154;11.514;2023-05-21T01:37:12;95282.38;;;14.92;59.89
20860;BME280;10590;48.154;11.514;2023-05-21T01:42:37;95275.50;;;14.76;61.11
20860;BME280;10590;48.154;11.514;2023-05-21T01:48:03;95262.53;;;14.46;61.99
20860;BME280;10590;48.154;11.514;2023-05-21T01:53:26;95279.91;;;14.52;63.57
20860;BME280;10590;48.154;11.514;2023-05-21T01:58:50;95271.16;;;14.55;62.63
20860;BME280;10590;48.154;11.514;2023-05-21T02:04:11;95270.91;;;14.29;60.84
20860;BME280;10590;48.154;11.514;2023-05-21T02:09:33;95269.44;;;14.31;60.27
20860;BME280;10590;48.154;11.514;2023-05-21T02:14:57;95259.56;;;14.20;60.44
20860;BME280;10590;48.154;11.514;2023-05-21T02:20:19;95263.88;;;14.40;59.39
20860;BME280;10590;48.154;11.514;2023-05-21T02:25:42;95268.75;;;14.50;59.31
20860;BME280;10590;48.154;11.514;2023-05-21T02:31:05;95266.31;;;14.29;59.57
20860;BME280;10590;48.154;11.514;2023-05-21T02:36:27;95262.25;;;14.35;59.21
20860;BME280;10590;48.154;11.514;2023-05-21T02:41:52;95264.94;;;14.20;60.23
20860;BME280;10590;48.154;11.514;2023-05-21T02:47:16;95266.31;;;14.14;60.19
20860;BME280;10590;48.154;11.514;2023-05-21T02:52:38;95265.28;;;14.02;60.19
20860;BME280;10590;48.154;11.514;2023-05-21T02:58:01;95267.09;;;14.30;60.61
20860;BME280;10590;48.154;11.514;2023-05-21T03:03:24;95269.84;;;14.02;60.75
20860;BME280;10590;48.154;11.514;2023-05-21T03:08:46;95262.34;;;14.08;61.37
20860;BME280;10590;48.154;11.514;2023-05-21T03:14:08;95275.16;;;14.14;61.66
20860;BME280;10590;48.154;11.514;2023-05-21T03:19:32;95250.03;;;13.91;62.01
20860;BME280;10590;48.154;11.514;2023-05-21T03:24:55;95248.44;;;13.74;61.14
20860;BME280;10590;48.154;11.514;2023-05-21T03:30:17;95251.19;;;13.62;61.65
20860;BME280;10590;48.154;11.514;2023-05-21T03:35:41;95264.63;;;13.50;61.40
20860;BME280;10590;48.154;11.514;2023-05-21T03:41:03;95258.59;;;13.53;61.48
20860;BME280;10590;48.154;11.514;2023-05-21T03:46:25;95248.41;;;13.58;60.98
20860;BME280;10590;48.154;11.514;2023-05-21T03:51:48;95247.69;;;13.89;60.47
20860;BME280;10590;48.154;11.514;2023-05-21T03:57:10;95248.94;;;13.64;60.87
20860;BME280;10590;48.154;11.514;2023-05-21T04:02:32;95252.06;;;13.66;60.70
20860;BME280;10590;48.154;11.514;2023-05-21T04:07:55;95259.94;;;13.75;61.20
20860;BME280;10590;48.154;11.514;2023-05-21T04:13:18;95258.19;;;13.66;61.35
20860;BME280;10590;48.154;11.514;2023-05-21T04:18:40;95261.81;;;13.58;61.86
20860;BME280;10590;48.154;11.514;2023-05-21T04:24:03;95253.69;;;13.98;61.08
20860;BME280;10590;48.154;11.514;2023-05-21T04:29:25;95261.84;;;13.74;61.78
20860;BME280;10590;48.154;11.514;2023-05-21T04:34:47;95276.00;;;14.02;63.56
20860;BME280;10590;48.154;11.514;2023-05-21T04:40:11;95272.97;;;14.04;63.15
20860;BME280;10590;48.154;11.514;2023-05-21T04:45:37;95268.56;;;14.12;62.68
20860;BME280;10590;48.154;11.514;2023-05-21T04:50:59;95262.66;;;13.90;63.00
20860;BME280;10590;48.154;11.514;2023-05-21T04:56:26;95271.50;;;14.07;62.21
20860;BME280;10590;48.154;11.514;2023-05-21T05:01:49;95279.31;;;14.43;61.21
20860;BME280;10590;48.154;11.514;2023-05-21T05:07:11;95281.09;;;14.86;61.91
20860;BME280;10590;48.154;11.514;2023-05-21T05:12:34;95275.50;;;15.30;61.37
20860;BME280;10590;48.154;11.514;2023-05-21T05:17:56;95278.63;;;15.51;59.82
20860;BME280;10590;48.154;11.514;2023-05-21T05:23:18;95276.97;;;15.47;59.16
20860;BME280;10590;48.154;11.514;2023-05-21T05:28:41;95278.81;;;15.23;58.91
20860;BME280;10590;48.154;11.514;2023-05-21T05:34:03;95278.88;;;15.62;56.20
20860;BME280;10590;48.154;11.514;2023-05-21T05:39:25;95286.81;;;14.85;57.98
20860;BME280;10590;48.154;11.514;2023-05-21T05:44:48;95282.41;;;15.12;58.19
20860;BME280;10590;48.154;11.514;2023-05-21T05:50:11;95279.66;;;15.27;57.87
20860;BME280;10590;48.154;11.514;2023-05-21T05:55:33;95285.38;;;15.07;57.80
20860;BME280;10590;48.154;11.514;2023-05-21T06:00:56;95284.78;;;15.33;57.10
20860;BME280;10590;48.154;11.514;2023-05-21T06:06:18;95284.84;;;16.40;55.92
20860;BME280;10590;48.154;11.514;2023-05-21T06:11:40;95281.09;;;16.44;55.41
20860;BME280;10590;48.154;11.514;2023-05-21T06:17:03;95278.47;;;16.48;55.92
20860;BME280;10590;48.154;11.514;2023-05-21T06:22:25;95280.09;;;16.52;55.55
20860;BME280;10590;48.154;11.514;2023-05-21T06:27:47;95287.97;;;17.44;53.59
20860;BME280;10590;48.154;11.514;2023-05-21T06:33:10;95295.72;;;17.79;52.92
20860;BME280;10590;48.154;11.514;2023-05-21T06:38:32;95290.69;;;17.17;53.65
20860;BME280;10590;48.154;11.514;2023-05-21T06:43:54;95285.47;;;17.32;53.17
20860;BME280;10590;48.154;11.514;2023-05-21T06:49:17;95287.22;;;17.47;51.18
20860;BME280;10590;48.154;11.514;2023-05-21T06:54:39;95286.94;;;17.86;51.86
20860;BME280;10590;48.154;11.514;2023-05-21T07:00:02;95291.81;;;18.10;50.47
20860;BME280;10590;48.154;11.514;2023-05-21T07:05:25;95286.28;;;18.81;49.02
20860;BME280;10590;48.154;11.514;2023-05-21T07:10:48;95290.94;;;18.87;48.09
20860;BME280;10590;48.154;11.514;2023-05-21T07:16:10;95297.44;;;19.34;46.88
20860;BME280;10590;48.154;11.514;2023-05-21T07:21:33;95293.19;;;18.78;47.65
20860;BME280;10590;48.154;11.514;2023-05-21T07:26:55;95291.31;;;19.51;45.41
20860;BME280;10590;48.154;11.514;2023-05-21T07:32:17;95286.94;;;20.16;44.44
20860;BME280;10590;48.154;11.514;2023-05-21T07:37:40;95288.44;;;21.55;43.97
20860;BME280;10590;48.154;11.514;2023-05-21T07:43:02;95297.44;;;21.17;43.47
20860;BME280;10590;48.154;11.514;2023-05-21T07:48:24;95283.47;;;20.36;42.67
20860;BME280;10590;48.154;11.514;2023-05-21T07:53:47;95289.28;;;20.31;41.87
20860;BME280;10590;48.154;11.514;2023-05-21T07:59:09;95281.19;;;20.42;40.90
20860;BME280;10590;48.154;11.514;2023-05-21T08:04:31;95290.88;;;21.04;40.11
20860;BME280;10590;48.154;11.514;2023-05-21T08:09:54;95303.97;;;20.27;41.53
20860;BME280;10590;48.154;11.514;2023-05-21T08:15:16;95302.84;;;20.39;41.29
20860;BME280;10590;48.154;11.514;2023-05-21T08:20:38;95312.56;;;20.47;41.72
20860;BME280;10590;48.154;11.514;2023-05-21T08:26:02;95309.41;;;20.38;42.10
20860;BME280;10590;48.154;11.514;2023-05-21T08:31:24;95316.94;;;19.64;43.60
20860;BME280;10590;48.154;11.514;2023-05-21T08:36:46;95319.91;;;20.43;43.86
20860;BME280;10590;48.154;11.514;2023-05-21T08:42:22;95321.00;;;20.20;45.14
20860;BME280;10590;48.154;11.514;2023-05-21T08:47:46;95320.19;;;20.06;45.33
20860;BME280;10590;48.154;11.514;2023-05-21T08:53:08;95317.59;;;20.77;44.31
20860;BME280;10590;48.154;11.514;2023-05-21T08:58:32;95312.16;;;21.12;43.79
20860;BME280;10590;48.154;11.514;2023-05-21T09:03:56;95316.47;;;20.88;44.00
20860;BME280;10590;48.154;11.514;2023-05-21T09:09:24;95319.50;;;21.40;43.42
20860;BME280;10590;48.154;11.514;2023-05-21T09:14:48;95314.75;;;21.66;44.17
20860;BME280;10590;48.154;11.514;2023-05-21T09:20:12;95320.03;;;23.23;43.46
20860;BME280;10590;48.154;11.514;2023-05-21T09:25:36;95318.06;;;22.78;43.11
20860;BME280;10590;48.154;11.514;2023-05-21T09:31:02;95313.84;;;25.05;38.60
20860;BME280;10590;48.154;11.514;2023-05-21T09:36:24;95313.63;;;25.19;37.72
20860;BME280;10590;48.154;11.514;2023-05-21T09:41:47;95314.28;;;23.89;38.39
20860;BME280;10590;48.154;11.514;2023-05-21T09:47:10;95307.16;;;25.92;36.42
20860;BME280;10590;48.154;11.514;2023-05-21T09:52:34;95312.72;;;24.75;37.83
20860;BME280;10590;48.154;11.514;2023-05-21T09:57:56;95311.66;;;26.02;35.87
20860;BME280;10590;48.154;11.514;2023-05-21T10:03:22;95311.88;;;24.25;37.35
20860;BME280;10590;48.154;11.514;2023-05-21T10:08:51;95308.31;;;24.01;38.36
20860;BME280;10590;48.154;11.514;2023-05-21T10:14:15;95300.88;;;24.35;36.82
20860;BME280;10590;48.154;11.514;2023-05-21T10:19:40;95296.84;;;24.43;35.63
20860;BME280;10590;48.154;11.514;2023-05-21T10:25:02;95294.34;;;29.15;29.10
20860;BME280;10590;48.154;11.514;2023-05-21T10:30:25;95301.16;;;27.06;28.48
20860;BME280;10590;48.154;11.514;2023-05-21T10:35:48;95286.56;;;29.13;26.16
20860;BME280;10590;48.154;11.514;2023-05-21T10:41:12;95276.34;;;29.14;26.39
20860;BME280;10590;48.154;11.514;2023-05-21T10:46:51;95286.59;;;29.92;25.48
20860;BME280;10590;48.154;11.514;2023-05-21T10:52:27;95274.41;;;28.51;25.11
20860;BME280;10590;48.154;11.514;2023-05-21T10:58:12;95281.16;;;28.08;24.71
20860;BME280;10590;48.154;11.514;2023-05-21T11:03:38;95280.16;;;27.89;24.92
20860;BME280;10590;48.154;11.514;2023-05-21T11:09:10;95276.16;;;28.58;25.36
20860;BME280;10590;48.154;11.514;2023-05-21T11:14:33;95282.56;;;25.92;28.07
20860;BME280;10590;48.154;11.514;2023-05-21T11:20:03;95286.31;;;26.18;27.29
20860;BME280;10590;48.154;11.514;2023-05-21T11:25:30;95285.44;;;26.05;27.15
20860;BME280;10590;48.154;11.514;2023-05-21T11:31:22;95283.47;;;26.06;27.51
20860;BME280;10590;48.154;11.514;2023-05-21T11:36:45;95269.84;;;27.94;24.70
20860;BME280;10590;48.154;11.514;2023-05-21T11:42:09;95270.84;;;26.80;25.69
20860;BME280;10590;48.154;11.514;2023-05-21T11:47:31;95276.75;;;27.85;24.42
20860;BME280;10590;48.154;11.514;2023-05-21T11:52:53;95269.56;;;28.80;23.91
20860;BME280;10590;48.154;11.514;2023-05-21T11:58:17;95271.38;;;27.82;25.82
20860;BME280;10590;48.154;11.514;2023-05-21T12:03:39;95257.94;;;30.33;23.45
20860;BME280;10590;48.154;11.514;2023-05-21T12:09:01;95260.09;;;30.69;25.40
20860;BME280;10590;48.154;11.514;2023-05-21T12:14:25;95254.94;;;30.40;24.42
20860;BME280;10590;48.154;11.514;2023-05-21T12:19:51;95254.38;;;29.70;22.44
20860;BME280;10590;48.154;11.514;2023-05-21T12:25:13;95265.31;;;29.61;20.34
20860;BME280;10590;48.154;11.514;2023-05-21T12:30:40;95245.91;;;29.08;22.59
20860;BME280;10590;48.154;11.514;2023-05-21T12:36:03;95250.53;;;31.10;21.29
20860;BME280;10590;48.154;11.514;2023-05-21T12:41:26;95241.81;;;31.12;19.80
20860;BME280;10590;48.154;11.514;2023-05-21T12:46:50;95249.53;;;31.44;19.86
20860;BME280;10590;48.154;11.514;2023-05-21T12:52:18;95248.47;;;29.25;22.08
20860;BME280;10590;48.154;11.514;2023-05-21T12:57:40;95238.09;;;30.38;21.64
20860;BME280;10590;48.154;11.514;2023-05-21T13:03:04;95231.50;;;30.85;20.85
20860;BME280;10590;48.154;11.514;2023-05-21T13:08:27;95236.28;;;29.60;22.74
20860;BME280;10590;48.154;11.514;2023-05-21T13:13:49;95231.22;;;29.59;22.40
20860;BME280;10590;48.154;11.514;2023-05-21T13:19:12;95228.63;;;30.39;21.53
20860;BME280;10590;48.154;11.514;2023-05-21T13:24:35;95222.38;;;30.48;21.76
20860;BME280;10590;48.154;11.514;2023-05-21T13:29:57;95222.56;;;27.89;25.21
20860;BME280;10590;48.154;11.514;2023-05-21T13:35:20;95216.38;;;30.89;21.29
20860;BME280;10590;48.154;11.514;2023-05-21T13:40:42;95212.53;;;30.78;22.83
20860;BME280;10590;48.154;11.514;2023-05-21T13:46:04;95216.59;;;27.37;24.66
20860;BME280;10590;48.154;11.514;2023-05-21T13:51:27;95218.72;;;26.84;25.43
20860;BME280;10590;48.154;11.514;2023-05-21T13:56:49;95213.84;;;29.27;22.56
20860;BME280;10590;48.154;11.514;2023-05-21T14:02:11;95209.81;;;27.12;25.23
20860;BME280;10590;48.154;11.514;2023-05-21T14:07:35;95222.19;;;26.39;26.81
20860;BME280;10590;48.154;11.514;2023-05-21T14:12:56;95206.59;;;25.64;26.93
20860;BME280;10590;48.154;11.514;2023-05-21T14:18:18;95205.56;;;24.95;28.09
20860;BME280;10590;48.154;11.514;2023-05-21T14:23:42;95220.56;;;26.58;26.67
20860;BME280;10590;48.154;11.514;2023-05-21T14:29:04;95205.34;;;28.02;25.57
20860;BME280;10590;48.154;11.514;2023-05-21T14:34:26;95207.63;;;26.75;27.72
20860;BME280;10590;48.154;11.514;2023-05-21T14:39:49;95208.09;;;28.02;26.03
20860;BME280;10590;48.154;11.514;2023-05-21T14:45:11;95202.75;;;27.69;26.90
20860;BME280;10590;48.154;11.514;2023-05-21T14:50:33;95209.06;;;27.82;27.25
20860;BME280;10590;48.154;11.514;2023-05-21T14:55:57;95200.88;;;27.24;27.73
20860;BME280;10590;48.154;11.514;2023-05-21T15:01:19;95198.97;;;28.17;27.16
20860;BME280;10590;48.154;11.514;2023-05-21T15:06:41;95183.94;;;27.97;26.65
20860;BME280;10590;48.154;11.514;2023-05-21T15:12:04;95199.59;;;27.42;26.67
20860;BME280;10590;48.154;11.514;2023-05-21T15:17:27;95210.38;;;26.58;29.13
20860;BME280;10590;48.154;11.514;2023-05-21T15:22:49;95204.66;;;26.00;30.29
20860;BME280;10590;48.154;11.514;2023-05-21T15:28:13;95198.03;;;26.18;30.23
20860;BME280;10590;48.154;11.514;2023-05-21T15:33:35;95201.78;;;25.71;31.76
20860;BME280;10590;48.154;11.514;2023-05-21T15:38:57;95201.63;;;25.59;30.52
20860;BME280;10590;48.154;11.514;2023-05-21T15:44:25;95194.91;;;25.63;31.44
20860;BME280;10590;48.154;11.514;2023-05-21T15:49:47;95198.03;;;25.82;30.44
20860;BME280;10590;48.154;11.514;2023-05-21T15:55:09;95190.44;;;25.33;31.03
20860;BME280;10590;48.154;11.514;2023-05-21T16:00:32;95187.66;;;25.17;31.38
20860;BME280;10590;48.154;11.514;2023-05-21T16:05:54;95184.28;;;25.29;32.05
20860;BME280;10590;48.154;11.514;2023-05-21T16:11:17;95188.06;;;24.92;31.77
20860;BME280;10590;48.154;11.514;2023-05-21T16:16:41;95183.03;;;24.91;31.54
20860;BME280;10590;48.154;11.514;2023-05-21T16:22:03;95183.63;;;25.02;31.86
20860;BME280;10590;48.154;11.514;2023-05-21T16:27:25;95178.94;;;24.79;31.79
20860;BME280;10590;48.154;11.514;2023-05-21T16:32:48;95177.91;;;24.50;31.54
20860;BME280;10590;48.154;11.514;2023-05-21T16:38:10;95177.59;;;24.44;31.83
20860;BME280;10590;48.154;11.514;2023-05-21T16:43:32;95178.63;;;24.30;31.69
20860;BME280;10590;48.154;11.514;2023-05-21T16:48:55;95171.72;;;24.19;31.98
20860;BME280;10590;48.154;11.514;2023-05-21T16:54:17;95174.56;;;24.11;31.87
20860;BME280;10590;48.154;11.514;2023-05-21T16:59:39;95175.66;;;24.18;32.89
20860;BME280;10590;48.154;11.514;2023-05-21T17:05:03;95173.03;;;24.10;32.88
20860;BME280;10590;48.154;11.514;2023-05-21T17:10:25;95173.97;;;24.27;33.14
20860;BME280;10590;48.154;11.514;2023-05-21T17:15:47;95168.22;;;23.95;33.01
20860;BME280;10590;48.154;11.514;2023-05-21T17:21:11;95161.47;;;23.76;33.33
20860;BME280;10590;48.154;11.514;2023-05-21T17:26:33;95177.78;;;23.79;33.27
20860;BME280;10590;48.154;11.514;2023-05-21T17:31:55;95181.06;;;23.67;34.58
20860;BME280;10590;48.154;11.514;2023-05-21T17:37:18;95174.28;;;23.48;34.87
20860;BME280;10590;48.154;11.514;2023-05-21T17:42:40;95189.22;;;23.33;35.59
20860;BME280;10590;48.154;11.514;2023-05-21T17:48:03;95192.66;;;23.41;37.05
20860;BME280;10590;48.154;11.514;2023-05-21T17:53:26;95193.47;;;23.04;39.65
20860;BME280;10590;48.154;11.514;2023-05-21T17:58:49;95193.63;;;22.90;40.61
20860;BME280;10590;48.154;11.514;2023-05-21T18:04:11;95197.66;;;22.71;42.54
20860;BME280;10590;48.154;11.514;2023-05-21T18:09:34;95193.97;;;22.47;43.49
20860;BME280;10590;48.154;11.514;2023-05-21T18:14:56;95206.78;;;22.46;44.18
20860;BME280;10590;48.154;11.514;2023-05-21T18:20:18;95204.06;;;22.46;44.63
20860;BME280;10590;48.154;11.514;2023-05-21T18:25:41;95204.19;;;22.32;44.92
20860;BME280;10590;48.154;11.514;2023-05-21T18:31:04;95207.88;;;22.08;46.59
20860;BME280;10590;48.154;11.514;2023-05-21T18:36:26;95207.16;;;21.93;47.04
20860;BME280;10590;48.154;11.514;2023-05-21T18:41:49;95210.81;;;21.69;48.47
20860;BME280;10590;48.154;11.514;2023-05-21T18:47:12;95208.91;;;21.58;49.56
20860;BME280;10590;48.154;11.514;2023-05-21T18:52:34;95211.69;;;21.44;49.58
20860;BME280;10590;48.154;11.514;2023-05-21T18:57:57;95225.31;;;21.30;50.10
20860;BME280;10590;48.154;11.514;2023-05-21T19:03:19;95221.09;;;21.08;50.89
20860;BME280;10590;48.154;11.514;2023-05-21T19:08:41;95223.03;;;21.04;51.24
20860;BME280;10590;48.154;11.514;2023-05-21T19:14:07;95231.22;;;20.89;51.50
20860;BME280;10590;48.154;11.514;2023-05-21T19:19:28;95240.88;;;20.76;52.19
20860;BME280;10590;48.154;11.514;2023-05-21T19:24:50;95246.72;;;20.64;52.48
20860;BME280;10590;48.154;11.514;2023-05-21T19:30:14;95243.63;;;20.62;52.71
20860;BME280;10590;48.154;11.514;2023-05-21T19:35:36;95246.34;;;20.55;53.36
20860;BME280;10590;48.154;11.514;2023-05-21T19:40:58;95247.47;;;20.36;53.90
20860;BME280;10590;48.154;11.514;2023-05-21T19:46:22;95248.28;;;20.47;54.09
20860;BME280;10590;48.154;11.514;2023-05-21T19:51:44;95250.94;;;20.08;54.99
20860;BME280;10590;48.154;11.514;2023-05-21T19:57:06;95252.09;;;20.07;55.25
20860;BME280;10590;48.154;11.514;2023-05-21T20:02:29;95248.94;;;19.87;56.16
20860;BME280;10590;48.154;11.514;2023-05-21T20:07:54;95251.97;;;19.68;56.62
20860;BME280;10590;48.154;11.514;2023-05-21T20:13:17;95245.69;;;19.46;57.22
20860;BME280;10590;48.154;11.514;2023-05-21T20:18:41;95248.69;;;19.27;58.50
20860;BME280;10590;48.154;11.514;2023-05-21T20:24:06;95248.34;;;19.35;57.88
20860;BME280;10590;48.154;11.514;2023-05-21T20:29:29;95250.53;;;19.08;58.71
20860;BME280;10590;48.154;11.514;2023-05-21T20:34:53;95250.56;;;19.16;58.75
20860;BME280;10590;48.154;11.514;2023-05-21T20:40:17;95246.91;;;18.87;59.45
20860;BME280;10590;48.154;11.514;2023-05-21T20:45:39;95243.09;;;18.95;59.22
20860;BME280;10590;48.154;11.514;2023-05-21T20:51:04;95245.44;;;19.00;58.97
20860;BME280;10590;48.154;11.514;2023-05-21T20:56:26;95252.75;;;18.92;59.21
20860;BME280;10590;48.154;11.514;2023-05-21T21:01:49;95262.22;;;18.65;60.47
20860;BME280;10590;48.154;11.514;2023-05-21T21:07:13;95254.16;;;18.72;60.20
20860;BME280;10590;48.154;11.514;2023-05-21T21:12:37;95253.56;;;18.49;60.37
20860;BME280;10590;48.154;11.514;2023-05-21T21:17:59;95259.72;;;18.45;60.34
20860;BME280;10590;48.154;11.514;2023-05-21T21:23:23;95268.59;;;18.42;61.34
20860;BME280;10590;48.154;11.514;2023-05-21T21:28:45;95265.03;;;18.35;61.12
20860;BME280;10590;48.154;11.514;2023-05-21T21:34:07;95269.28;;;18.32;61.14
20860;BME280;10590;48.154;11.514;2023-05-21T21:39:30;95268.56;;;18.02;63.39
20860;BME280;10590;48.154;11.514;2023-05-21T21:44:52;95268.78;;;17.82;63.47
20860;BME280;10590;48.154;11.514;2023-05-21T21:50:14;95272.34;;;17.60;65.18
20860;BME280;10590;48.154;11.514;2023-05-21T21:55:38;95273.50;;;17.29;66.12
20860;BME280;10590;48.154;11.514;2023-05-21T22:01:00;95272.13;;;17.12;67.39
20860;BME280;10590;48.154;11.514;2023-05-21T22:06:22;95276.19;;;16.99;67.61
20860;BME280;10590;48.154;11.514;2023-05-21T22:11:45;95275.16;;;16.12;70.80
20860;BME280;10590;48.154;11.514;2023-05-21T22:17:07;95270.34;;;15.79;71.92
20860;BME280;10590;48.154;11.514;2023-05-21T22:22:29;95272.31;;;15.24;74.59
20860;BME280;10590;48.154;11.514;2023-05-21T22:27:52;95272.63;;;15.58;73.67
20860;BME280;10590;48.154;11.514;2023-05-21T22:33:15;95280.50;;;15.12;75.41
20860;BME280;10590;48.154;11.514;2023-05-21T22:38:36;95266.09;;;15.59;73.86
20860;BME280;10590;48.154;11.514;2023-05-21T22:44:00;95264.56;;;15.58;73.51
20860;BME280;10590;48.154;11.514;2023-05-21T22:49:21;95267.41;;;15.65;73.25
20860;BME280;10590;48.154;11.514;2023-05-21T22:54:44;95274.00;;;15.13;75.34
20860;BME280;10590;48.154;11.514;2023-05-21T23:00:08;95269.63;;;15.24;75.12
20860;BME280;10590;48.154;11.514;2023-05-21T23:05:31;95265.50;;;15.11;75.97
20860;BME280;10590;48.154;11.514;2023-05-21T23:10:53;95263.66;;;14.96;75.81
20860;BME280;10590;48.154;11.514;2023-05-21T23:16:16;95264.28;;;14.89;76.28
20860;BME280;10590;48.154;11.514;2023-05-21T23:21:38;95267.25;;;14.69;77.48
20860;BME280;10590;48.154;11.514;2023-05-21T23:27:00;95273.00;;;15.02;75.95
20860;BME280;10590;48.154;11.514;2023-05-21T23:32:23;95264.25;;;14.23;79.15
20860;BME280;10590;48.154;11.514;2023-05-21T23:37:46;95256.16;;;14.70;77.11
20860;BME280;10590;48.154;11.514;2023-05-21T23:43:08;95264.28;;;14.74;77.17
20860;BME280;10590;48.154;11.514;2023-05-21T23:48:33;95262.94;;;14.80;77.32
20860;BME280;10590;48.154;11.514;2023-05-21T23:53:55;95268.72;;;14.66;77.79
20860;BME280;10590;48.154;11.514;2023-05-21T23:59:17;95264.56;;;14.69;77.69
